createdAt,value
2022-12-04T00:00:19.280Z,1.47
2022-12-04T00:03:22.130Z,1.35
2022-12-04T00:06:25.786Z,1.32
2022-12-04T00:09:28.710Z,1.24
2022-12-04T00:12:31.499Z,1.20
2022-12-04T00:15:34.265Z,1.16
2022-12-04T00:18:37.449Z,1.25
2022-12-04T00:21:40.393Z,1.25
2022-12-04T00:24:43.263Z,1.20
2022-12-04T00:27:46.060Z,1.25
2022-12-04T00:30:49.270Z,1.20
2022-12-04T00:33:53.263Z,1.15
2022-12-04T00:36:56.150Z,1.07
2022-12-04T00:39:58.927Z,0.99
2022-12-04T00:43:02.181Z,0.92
2022-12-04T00:46:05.888Z,0.91
2022-12-04T00:49:09.159Z,0.90
2022-12-04T00:52:11.957Z,0.92
2022-12-04T00:55:15.049Z,0.94
2022-12-04T00:58:18.181Z,0.97
2022-12-04T01:01:21.870Z,0.94
2022-12-04T01:04:24.980Z,0.91
2022-12-04T01:07:27.892Z,0.95
2022-12-04T01:10:31.126Z,0.95
2022-12-04T01:13:34.359Z,0.93
2022-12-04T01:16:39.602Z,0.81
2022-12-04T01:19:42.766Z,0.76
2022-12-04T01:22:45.541Z,0.77
2022-12-04T01:25:58.248Z,0.72
2022-12-04T01:29:02.052Z,0.75
2022-12-04T01:32:05.107Z,0.73
2022-12-04T01:35:08.400Z,0.66
2022-12-04T01:38:11.469Z,0.73
2022-12-04T01:41:16.394Z,0.73
2022-12-04T01:44:25.150Z,0.67
2022-12-04T01:47:27.851Z,0.70
2022-12-04T01:50:31.384Z,0.71
2022-12-04T01:53:38.603Z,0.72
2022-12-04T01:56:52.395Z,0.68
2022-12-04T02:00:07.054Z,0.71
2022-12-04T02:03:10.108Z,0.70
2022-12-04T02:06:12.921Z,0.67
2022-12-04T02:09:17.031Z,0.65
2022-12-04T02:12:43.855Z,0.57
2022-12-04T02:15:58.809Z,0.54
2022-12-04T02:19:01.593Z,0.51
2022-12-04T02:22:20.051Z,0.48
2022-12-04T02:25:54.838Z,0.43
2022-12-04T02:29:05.337Z,0.44
2022-12-04T02:32:29.273Z,0.50
2022-12-04T02:35:40.388Z,0.42
2022-12-04T02:38:52.649Z,0.27
2022-12-04T02:42:02.786Z,0.34
2022-12-04T02:45:14.997Z,0.36
2022-12-04T02:48:20.977Z,0.40
2022-12-04T02:51:27.692Z,0.40
2022-12-04T02:54:40.662Z,0.37
2022-12-04T02:57:48.908Z,0.34
2022-12-04T03:00:55.100Z,0.31
2022-12-04T03:04:03.256Z,0.32
2022-12-04T03:07:13.435Z,0.27
2022-12-04T03:10:28.130Z,0.29
2022-12-04T03:13:37.232Z,0.28
2022-12-04T03:16:42.047Z,0.28
2022-12-04T03:19:50.865Z,0.26
2022-12-04T03:22:59.790Z,0.28
2022-12-04T03:26:02.575Z,0.30
2022-12-04T03:29:27.354Z,0.29
2022-12-04T03:33:06.282Z,0.31
2022-12-04T03:36:31.628Z,0.30
2022-12-04T03:39:53.131Z,0.26
2022-12-04T03:42:59.076Z,0.25
2022-12-04T03:46:22.582Z,0.21
2022-12-04T03:49:45.020Z,0.16
2022-12-04T03:53:09.076Z,0.18
2022-12-04T03:56:26.548Z,0.17
2022-12-04T03:59:51.125Z,0.16
2022-12-04T04:03:06.870Z,0.13
2022-12-04T04:06:14.297Z,0.15
2022-12-04T04:09:24.251Z,0.16
2022-12-04T04:12:33.178Z,0.11
2022-12-04T04:16:00.052Z,0.05
2022-12-04T04:19:22.636Z,0.05
2022-12-04T04:22:46.165Z,0.03
2022-12-04T04:25:51.667Z,0.06
2022-12-04T04:28:54.420Z,0.03
2022-12-04T04:32:04.555Z,0.05
2022-12-04T04:35:22.048Z,0.08
2022-12-04T04:38:45.705Z,0.07
2022-12-04T04:41:57.380Z,0.08
2022-12-04T04:45:14.094Z,0.10
2022-12-04T04:48:20.203Z,0.12
2022-12-04T04:51:23.703Z,0.10
2022-12-04T04:54:30.028Z,0.06
2022-12-04T04:57:38.300Z,0.14
2022-12-04T05:00:46.410Z,0.16
2022-12-04T05:03:49.167Z,0.17
2022-12-04T05:06:51.886Z,0.19
2022-12-04T05:09:55.110Z,0.08
2022-12-04T05:12:58.163Z,0.04
2022-12-04T05:16:04.408Z,0.03
2022-12-04T05:19:25.754Z,0.08
2022-12-04T05:22:33.808Z,0.17
2022-12-04T05:25:36.541Z,0.11
2022-12-04T05:28:41.238Z,0.04
2022-12-04T05:31:44.266Z,0.09
2022-12-04T05:34:55.103Z,0.08
2022-12-04T05:37:58.030Z,0.13
2022-12-04T05:41:02.708Z,0.13
2022-12-04T05:44:05.596Z,0.14
2022-12-04T05:47:08.522Z,0.15
2022-12-04T05:50:13.312Z,0.17
2022-12-04T05:53:16.192Z,0.18
2022-12-04T05:56:19.029Z,0.25
2022-12-04T05:59:22.078Z,0.27
2022-12-04T06:02:24.954Z,0.35
2022-12-04T06:05:27.804Z,0.38
2022-12-04T06:08:32.250Z,0.49
2022-12-04T06:11:37.462Z,0.44
2022-12-04T06:14:40.242Z,0.48
2022-12-04T06:17:42.978Z,0.47
2022-12-04T06:20:45.787Z,0.55
2022-12-04T06:23:48.966Z,0.59
2022-12-04T06:30:19.239Z,0.63
2022-12-04T06:33:22.019Z,0.67
2022-12-04T06:36:25.079Z,0.80
2022-12-04T06:39:28.214Z,0.86
2022-12-04T06:42:30.990Z,0.92
2022-12-04T06:45:33.900Z,1.07
2022-12-04T06:48:37.110Z,1.14
2022-12-04T06:51:41.085Z,1.35
2022-12-04T06:54:44.070Z,1.43
2022-12-04T06:57:46.847Z,1.37
2022-12-04T07:00:49.665Z,1.52
2022-12-04T07:03:52.954Z,1.59
2022-12-04T07:06:55.920Z,1.87
2022-12-04T07:09:58.789Z,1.91
2022-12-04T07:13:01.665Z,1.90
2022-12-04T07:16:07.017Z,1.98
2022-12-04T07:19:11.508Z,2.14
2022-12-04T07:22:15.089Z,2.24
2022-12-04T07:25:18.658Z,2.44
2022-12-04T07:28:21.445Z,2.97
2022-12-04T07:31:26.509Z,3.47
2022-12-04T07:34:29.572Z,4.30
2022-12-04T07:37:32.488Z,4.53
2022-12-04T07:40:37.673Z,4.65
2022-12-04T07:43:41.447Z,4.67
2022-12-04T07:46:44.214Z,4.98
2022-12-04T07:49:47.024Z,4.85
2022-12-04T07:52:49.959Z,4.21
2022-12-04T07:55:53.241Z,3.77
2022-12-04T07:58:56.188Z,3.68
2022-12-04T08:01:59.283Z,4.18
2022-12-04T08:05:02.412Z,5.15
2022-12-04T08:08:05.640Z,6.16
2022-12-04T08:11:11.198Z,6.36
2022-12-04T08:14:14.072Z,7.03
2022-12-04T08:17:17.411Z,6.65
2022-12-04T08:20:20.310Z,7.81
2022-12-04T08:23:23.113Z,7.58
2022-12-04T08:26:28.385Z,7.42
2022-12-04T08:29:31.134Z,8.10
2022-12-04T08:32:34.202Z,9.27
2022-12-04T08:35:36.952Z,10.82
2022-12-04T08:38:39.891Z,11.37
2022-12-04T08:41:42.662Z,12.23
2022-12-04T08:44:46.158Z,12.24
2022-12-04T08:47:52.468Z,11.21
2022-12-04T08:50:55.950Z,10.85
2022-12-04T08:54:01.323Z,10.89
2022-12-04T08:57:04.276Z,9.75
2022-12-04T09:00:07.827Z,11.17
2022-12-04T09:03:16.259Z,10.73
2022-12-04T09:06:20.382Z,9.59
2022-12-04T09:09:23.407Z,9.88
2022-12-04T09:12:26.446Z,9.98
2022-12-04T09:15:29.540Z,10.35
2022-12-04T09:18:33.681Z,11.64
2022-12-04T09:21:37.006Z,10.85
2022-12-04T09:24:41.248Z,10.89
2022-12-04T09:27:45.135Z,11.24
2022-12-04T09:31:05.472Z,11.55
2022-12-04T09:34:08.543Z,9.70
2022-12-04T09:37:11.531Z,8.11
2022-12-04T09:40:38.112Z,7.45
2022-12-04T09:43:50.723Z,7.08
2022-12-04T09:46:59.735Z,6.51
2022-12-04T09:50:12.620Z,6.70
2022-12-04T09:53:28.044Z,6.79
2022-12-04T09:56:32.370Z,6.43
2022-12-04T09:59:35.371Z,6.44
2022-12-04T10:02:41.950Z,6.87
2022-12-04T10:06:03.771Z,6.70
2022-12-04T10:09:31.277Z,6.84
2022-12-04T10:13:01.765Z,7.02
2022-12-04T10:16:15.116Z,7.07
2022-12-04T10:19:37.729Z,7.23
2022-12-04T10:22:56.650Z,7.54
2022-12-04T10:26:01.999Z,8.66
2022-12-04T10:29:12.448Z,8.11
2022-12-04T10:32:32.890Z,7.05
2022-12-04T10:35:37.998Z,7.24
2022-12-04T10:38:47.582Z,7.16
2022-12-04T10:42:01.908Z,7.22
2022-12-04T10:45:07.429Z,7.20
2022-12-04T10:48:41.973Z,7.19
2022-12-04T10:51:46.213Z,7.57
2022-12-04T10:54:55.279Z,7.40
2022-12-04T10:57:58.184Z,7.92
2022-12-04T11:01:05.341Z,7.53
2022-12-04T11:04:18.727Z,7.42
2022-12-04T11:07:25.528Z,7.48
2022-12-04T11:10:32.161Z,7.23
2022-12-04T11:13:35.221Z,6.97
2022-12-04T11:16:42.146Z,7.00
2022-12-04T11:19:45.553Z,6.90
2022-12-04T11:22:52.270Z,6.87
2022-12-04T11:26:03.745Z,6.73
2022-12-04T11:29:14.771Z,6.50
2022-12-04T11:32:25.443Z,6.38
2022-12-04T11:35:30.439Z,6.31
2022-12-04T11:38:35.733Z,6.36
2022-12-04T11:41:40.375Z,6.46
2022-12-04T11:45:13.499Z,6.56
2022-12-04T11:48:21.421Z,6.66
2022-12-04T11:51:49.299Z,6.69
2022-12-04T11:55:04.584Z,6.60
2022-12-04T11:58:38.610Z,6.58
2022-12-04T12:02:03.373Z,6.65
2022-12-04T12:05:12.401Z,6.47
2022-12-04T12:08:56.761Z,6.45
2022-12-04T12:12:08.501Z,6.37
2022-12-04T12:15:36.308Z,6.38
2022-12-04T12:19:12.802Z,6.57
2022-12-04T12:22:49.274Z,6.54
2022-12-04T12:26:21.682Z,6.55
2022-12-04T12:29:50.582Z,6.53
2022-12-04T12:33:19.205Z,6.48
2022-12-04T12:36:24.920Z,6.37
2022-12-04T12:40:01.365Z,6.33
2022-12-04T12:43:37.277Z,6.34
2022-12-04T12:46:49.194Z,6.29
2022-12-04T12:50:05.064Z,6.15
2022-12-04T12:53:22.738Z,6.08
2022-12-04T12:56:42.300Z,6.12
2022-12-04T12:59:58.564Z,6.11
2022-12-04T13:03:30.708Z,6.11
2022-12-04T13:06:40.136Z,6.05
2022-12-04T13:09:50.407Z,6.00
2022-12-04T13:13:00.060Z,6.05
2022-12-04T13:16:24.691Z,6.03
2022-12-04T13:19:43.591Z,5.97
2022-12-04T13:23:05.173Z,5.98
2022-12-04T13:26:22.852Z,6.00
2022-12-04T13:30:09.065Z,5.91
2022-12-04T13:33:38.161Z,5.97
2022-12-04T13:37:03.857Z,5.94
2022-12-04T13:40:28.465Z,5.94
2022-12-04T13:43:47.344Z,5.92
2022-12-04T13:47:02.305Z,6.02
2022-12-04T13:50:10.722Z,5.91
2022-12-04T13:53:37.817Z,5.79
2022-12-04T13:56:46.028Z,5.86
2022-12-04T13:59:49.521Z,5.81
2022-12-04T14:02:55.972Z,5.87
2022-12-04T14:06:05.250Z,5.78
2022-12-04T14:09:38.625Z,5.79
2022-12-04T14:12:49.538Z,5.81
2022-12-04T14:16:04.733Z,5.74
2022-12-04T14:19:09.085Z,5.84
2022-12-04T14:22:39.629Z,5.84
2022-12-04T14:25:42.902Z,5.81
2022-12-04T14:28:46.050Z,5.84
2022-12-04T14:31:50.061Z,5.79
2022-12-04T14:34:54.463Z,5.78
2022-12-04T14:38:02.167Z,5.76
2022-12-04T14:41:05.079Z,5.73
2022-12-04T14:44:22.452Z,5.69
2022-12-04T14:48:04.448Z,5.72
2022-12-04T14:51:22.579Z,5.71
2022-12-04T14:54:32.432Z,5.60
2022-12-04T14:57:52.763Z,5.60
2022-12-04T15:00:58.788Z,5.57
2022-12-04T15:04:24.577Z,5.53
2022-12-04T15:07:31.098Z,5.48
2022-12-04T15:10:53.750Z,5.39
2022-12-04T15:14:05.704Z,5.27
2022-12-04T15:17:11.384Z,5.23
2022-12-04T15:20:17.943Z,5.22
2022-12-04T15:23:44.918Z,5.17
2022-12-04T15:26:50.222Z,5.13
2022-12-04T15:29:56.557Z,5.07
2022-12-04T15:32:59.878Z,5.02
2022-12-04T15:36:08.456Z,4.95
2022-12-04T15:39:19.277Z,4.92
2022-12-04T15:42:22.291Z,4.88
2022-12-04T15:45:31.940Z,4.86
2022-12-04T15:48:34.797Z,4.82
2022-12-04T15:51:37.956Z,4.80
2022-12-04T15:55:08.236Z,4.80
2022-12-04T15:58:33.045Z,4.80
2022-12-04T16:01:40.443Z,4.75
2022-12-04T16:04:45.591Z,4.69
2022-12-04T16:07:51.897Z,4.67
2022-12-04T16:11:01.275Z,4.64
2022-12-04T16:14:18.548Z,4.61
2022-12-04T16:17:28.272Z,4.57
2022-12-04T16:20:31.569Z,4.52
2022-12-04T16:23:34.384Z,4.49
2022-12-04T16:26:37.506Z,4.54
2022-12-04T16:29:41.271Z,4.40
2022-12-04T16:32:44.254Z,4.31
2022-12-04T16:35:47.306Z,4.27
2022-12-04T16:38:50.681Z,4.27
2022-12-04T16:41:53.715Z,4.27
2022-12-04T16:44:58.315Z,4.28
2022-12-04T16:48:01.752Z,4.24
2022-12-04T16:51:04.670Z,4.27
2022-12-04T16:54:10.342Z,4.26
2022-12-04T16:57:13.319Z,4.20
2022-12-04T17:00:18.650Z,4.19
2022-12-04T17:03:31.204Z,4.19
2022-12-04T17:06:34.235Z,4.17
2022-12-04T17:09:37.298Z,4.26
2022-12-04T17:12:41.179Z,4.24
2022-12-04T17:15:44.507Z,4.24
2022-12-04T17:18:47.471Z,4.21
2022-12-04T17:21:50.554Z,4.32
2022-12-04T17:24:57.625Z,4.26
2022-12-04T17:28:01.062Z,4.37
2022-12-04T17:31:06.454Z,4.25
2022-12-04T17:34:09.406Z,4.22
2022-12-04T17:37:12.519Z,4.17
2022-12-04T17:40:16.807Z,4.14
2022-12-04T17:43:22.201Z,4.16
2022-12-04T17:46:25.734Z,4.11
2022-12-04T17:49:28.911Z,4.09
2022-12-04T17:52:31.974Z,4.07
2022-12-04T17:55:35.149Z,4.06
2022-12-04T17:58:38.769Z,4.07
2022-12-04T18:01:41.770Z,4.07
2022-12-04T18:04:45.803Z,4.06
2022-12-04T18:07:48.657Z,4.05
2022-12-04T18:10:51.869Z,4.05
2022-12-04T18:13:57.500Z,4.04
2022-12-04T18:17:01.515Z,4.03
2022-12-04T18:20:05.804Z,4.05
2022-12-04T18:23:09.192Z,4.05
2022-12-04T18:26:18.041Z,4.07
2022-12-04T18:29:24.788Z,4.04
2022-12-04T18:32:27.927Z,4.01
2022-12-04T18:35:30.932Z,4.00
2022-12-04T18:38:34.401Z,4.00
2022-12-04T18:41:38.170Z,3.93
2022-12-04T18:44:41.603Z,3.93
2022-12-04T18:47:44.618Z,3.93
2022-12-04T18:50:47.815Z,3.93
2022-12-04T18:53:55.472Z,3.95
2022-12-04T18:56:58.728Z,3.94
2022-12-04T19:00:02.275Z,3.96
2022-12-04T19:03:06.083Z,3.97
2022-12-04T19:06:12.538Z,3.95
2022-12-04T19:09:18.593Z,3.96
2022-12-04T19:12:21.784Z,3.97
2022-12-04T19:15:25.370Z,3.95
2022-12-04T19:18:29.982Z,4.07
2022-12-04T19:21:33.691Z,4.02
2022-12-04T19:24:36.783Z,4.01
2022-12-04T19:27:39.641Z,4.12
2022-12-04T19:30:42.677Z,4.12
2022-12-04T19:33:46.352Z,4.08
2022-12-04T19:36:50.275Z,4.07
2022-12-04T19:39:53.528Z,4.08
2022-12-04T19:43:02.496Z,4.06
2022-12-04T19:46:07.938Z,4.07
2022-12-04T19:49:12.919Z,4.04
2022-12-04T19:52:17.519Z,4.04
2022-12-04T19:55:21.060Z,4.04
2022-12-04T19:58:26.366Z,4.02
2022-12-04T20:01:32.425Z,4.01
2022-12-04T20:04:35.636Z,3.99
2022-12-04T20:07:39.277Z,4.00
2022-12-04T20:10:43.169Z,4.01
2022-12-04T20:13:49.071Z,4.05
2022-12-04T20:16:52.173Z,4.11
2022-12-04T20:19:56.706Z,4.11
2022-12-04T20:22:59.917Z,4.22
2022-12-04T20:26:06.659Z,4.16
2022-12-04T20:29:13.155Z,4.13
2022-12-04T20:32:16.165Z,4.11
2022-12-04T20:35:19.218Z,4.09
2022-12-04T20:38:23.769Z,4.14
2022-12-04T20:41:29.545Z,4.18
2022-12-04T20:44:32.555Z,4.10
2022-12-04T20:47:36.555Z,4.26
2022-12-04T20:50:41.473Z,4.26
2022-12-04T20:53:47.982Z,4.16
2022-12-04T20:56:53.226Z,4.05
2022-12-04T20:59:56.868Z,4.15
2022-12-04T21:03:00.187Z,4.11
2022-12-04T21:06:03.189Z,4.13
2022-12-04T21:09:11.114Z,4.09
2022-12-04T21:12:32.537Z,4.11
2022-12-04T21:16:05.265Z,4.11
2022-12-04T21:19:11.355Z,4.23
2022-12-04T21:22:17.049Z,4.18
2022-12-04T21:25:19.984Z,4.29
2022-12-04T21:28:22.734Z,4.14
2022-12-04T21:31:28.818Z,4.10
2022-12-04T21:34:32.017Z,4.06
2022-12-04T21:37:34.898Z,4.02
2022-12-04T21:40:42.300Z,3.97
2022-12-04T21:43:45.589Z,3.97
2022-12-04T21:46:49.620Z,3.94
2022-12-04T21:49:54.603Z,3.94
2022-12-04T21:52:57.440Z,3.97
2022-12-04T21:56:00.265Z,4.01
2022-12-04T21:59:03.708Z,4.00
2022-12-04T22:02:06.765Z,4.02
2022-12-04T22:05:09.619Z,3.98
2022-12-04T22:08:13.408Z,3.94
2022-12-04T22:11:17.379Z,3.94
2022-12-04T22:14:20.151Z,3.91
2022-12-04T22:17:22.882Z,3.89
2022-12-04T22:20:25.969Z,3.89
2022-12-04T22:23:28.768Z,3.84
2022-12-04T22:26:32.402Z,3.87
2022-12-04T22:29:49.933Z,3.92
2022-12-04T22:32:54.131Z,3.84
2022-12-04T22:36:05.639Z,3.75
2022-12-04T22:39:10.128Z,3.64
2022-12-04T22:42:13.516Z,3.50
2022-12-04T22:45:16.247Z,3.40
2022-12-04T22:48:18.986Z,3.30
2022-12-04T22:51:22.197Z,3.22
2022-12-04T22:54:24.923Z,3.17
2022-12-04T22:57:28.509Z,3.04
2022-12-04T23:00:31.218Z,2.99
2022-12-04T23:03:34.278Z,2.94
2022-12-04T23:06:37.185Z,2.85
2022-12-04T23:09:40.287Z,2.77
2022-12-04T23:12:43.017Z,2.71
2022-12-04T23:15:45.816Z,2.70
2022-12-04T23:18:49.636Z,2.75
2022-12-04T23:21:57.003Z,2.71
2022-12-04T23:25:00.225Z,2.62
2022-12-04T23:28:03.009Z,2.69
2022-12-04T23:31:06.185Z,2.69
2022-12-04T23:34:09.006Z,2.66
2022-12-04T23:37:11.960Z,2.57
2022-12-04T23:40:15.093Z,2.53
2022-12-04T23:43:18.243Z,2.64
2022-12-04T23:46:24.838Z,2.61
2022-12-04T23:49:27.813Z,2.52
2022-12-04T23:52:31.211Z,2.53
2022-12-04T23:55:34.694Z,2.65
2022-12-04T23:58:38.824Z,2.71
